EJA906 MYGF-MYEH
Flight info
| Callsign | EJA906 |
|---|---|
| Flight time | 0h 22m |
| Altitude | 19000 |
| Route | BUUCK2 CEGUR BR63V BURBO DCT OHBEE |
| Aircraft | C750/M-SBDE3FGHRWXY/S |
Departure
| Time | 2026-05-05 02:11 |
|---|---|
| Airport | Grand Bahama International Airport (MYGF) |
Arrival
| Time | 2026-05-05 02:33 |
|---|---|
| Airport | North Eleuthera Airport (MYEH) |
| Time | Latitude | Longitude | Altitude | Speed | Heading |
|---|---|---|---|---|---|
| 2026-05-05 02:03 | 26.54821 | -78.70228 | 11 ft | 0 kts | 206° |
| 2026-05-05 02:09 | 26.54816 | -78.70242 | 11 ft | 7 kts | 287° |
| 2026-05-05 02:09 | 26.54907 | -78.70304 | 11 ft | 22 kts | 317° |
| 2026-05-05 02:09 | 26.54965 | -78.70510 | 11 ft | 35 kts | 274° |
| 2026-05-05 02:09 | 26.54988 | -78.70834 | 11 ft | 41 kts | 267° |
| 2026-05-05 02:10 | 26.54984 | -78.70966 | 11 ft | 13 kts | 276° |
| 2026-05-05 02:10 | 26.55079 | -78.71008 | 11 ft | 22 kts | 1° |
| 2026-05-05 02:10 | 26.55209 | -78.70879 | 11 ft | 30 kts | 60° |
| 2026-05-05 02:10 | 26.55386 | -78.70524 | 11 ft | 95 kts | 58° |
| 2026-05-05 02:11 | 26.55886 | -78.69522 | 12 ft | 192 kts | 61° |
| 2026-05-05 02:11 | 26.56660 | -78.68026 | 238 ft | 252 kts | 60° |
| 2026-05-05 02:11 | 26.57490 | -78.66431 | 2477 ft | 242 kts | 62° |
| 2026-05-05 02:11 | 26.58164 | -78.65112 | 4785 ft | 216 kts | 64° |
| 2026-05-05 02:12 | 26.58808 | -78.63660 | 6239 ft | 226 kts | 64° |
| 2026-05-05 02:12 | 26.58766 | -78.60266 | 8752 ft | 245 kts | 132° |
| 2026-05-05 02:12 | 26.57387 | -78.59285 | 9921 ft | 245 kts | 168° |
| 2026-05-05 02:13 | 26.55745 | -78.58801 | 11184 ft | 250 kts | 167° |
| 2026-05-05 02:13 | 26.54091 | -78.58238 | 12398 ft | 254 kts | 168° |
| 2026-05-05 02:13 | 26.52400 | -78.57661 | 13541 ft | 260 kts | 169° |
| 2026-05-05 02:13 | 26.50795 | -78.57115 | 14554 ft | 265 kts | 169° |
| 2026-05-05 02:14 | 26.49031 | -78.56512 | 15555 ft | 273 kts | 169° |
| 2026-05-05 02:14 | 26.47198 | -78.55888 | 16541 ft | 280 kts | 170° |
| 2026-05-05 02:14 | 26.45369 | -78.55090 | 17460 ft | 297 kts | 152° |
| 2026-05-05 02:14 | 26.43950 | -78.53366 | 18401 ft | 315 kts | 126° |
| 2026-05-05 02:15 | 26.42743 | -78.51254 | 18936 ft | 337 kts | 128° |
| 2026-05-05 02:15 | 26.41337 | -78.48972 | 19028 ft | 375 kts | 128° |
| 2026-05-05 02:15 | 26.39795 | -78.46469 | 19063 ft | 411 kts | 127° |
| 2026-05-05 02:15 | 26.38097 | -78.43700 | 19069 ft | 450 kts | 127° |
| 2026-05-05 02:16 | 26.36258 | -78.40722 | 19057 ft | 485 kts | 127° |
| 2026-05-05 02:16 | 26.34320 | -78.37570 | 19047 ft | 503 kts | 127° |
| 2026-05-05 02:16 | 26.32319 | -78.34314 | 19038 ft | 503 kts | 127° |
| 2026-05-05 02:16 | 26.30594 | -78.31533 | 19016 ft | 493 kts | 127° |
| 2026-05-05 02:17 | 26.28802 | -78.28619 | 19005 ft | 484 kts | 128° |
| 2026-05-05 02:17 | 26.26876 | -78.25509 | 19006 ft | 475 kts | 127° |
| 2026-05-05 02:17 | 26.25012 | -78.22502 | 19010 ft | 469 kts | 128° |
| 2026-05-05 02:17 | 26.23175 | -78.19531 | 19005 ft | 465 kts | 128° |
| 2026-05-05 02:18 | 26.21335 | -78.16568 | 19011 ft | 461 kts | 127° |
| 2026-05-05 02:18 | 26.19523 | -78.13636 | 19007 ft | 457 kts | 128° |
| 2026-05-05 02:18 | 26.17720 | -78.10732 | 19010 ft | 454 kts | 128° |
| 2026-05-05 02:18 | 26.15942 | -78.07866 | 19008 ft | 452 kts | 128° |
| 2026-05-05 02:19 | 26.14142 | -78.04974 | 19010 ft | 450 kts | 128° |
| 2026-05-05 02:19 | 26.12374 | -78.02122 | 19008 ft | 448 kts | 128° |
| 2026-05-05 02:19 | 26.10601 | -77.99274 | 19008 ft | 447 kts | 128° |
| 2026-05-05 02:19 | 26.08846 | -77.96448 | 19010 ft | 445 kts | 128° |
| 2026-05-05 02:20 | 26.07097 | -77.93647 | 19015 ft | 444 kts | 128° |
| 2026-05-05 02:20 | 26.05323 | -77.90791 | 19005 ft | 444 kts | 128° |
| 2026-05-05 02:20 | 26.03566 | -77.87973 | 19005 ft | 443 kts | 128° |
| 2026-05-05 02:20 | 26.01833 | -77.85199 | 19014 ft | 442 kts | 128° |
| 2026-05-05 02:21 | 26.00060 | -77.82359 | 19021 ft | 442 kts | 128° |
| 2026-05-05 02:21 | 25.98316 | -77.79562 | 19016 ft | 442 kts | 128° |
| 2026-05-05 02:21 | 25.96564 | -77.76761 | 19008 ft | 441 kts | 128° |
| 2026-05-05 02:21 | 25.94828 | -77.73979 | 19014 ft | 441 kts | 128° |
| 2026-05-05 02:22 | 25.93079 | -77.71189 | 19017 ft | 441 kts | 128° |
| 2026-05-05 02:22 | 25.91325 | -77.68382 | 19013 ft | 440 kts | 128° |
| 2026-05-05 02:22 | 25.89571 | -77.65582 | 19022 ft | 440 kts | 128° |
| 2026-05-05 02:22 | 25.87829 | -77.62806 | 19013 ft | 440 kts | 128° |
| 2026-05-05 02:23 | 25.86080 | -77.60015 | 19018 ft | 440 kts | 128° |
| 2026-05-05 02:23 | 25.84327 | -77.57220 | 19012 ft | 440 kts | 128° |
| 2026-05-05 02:23 | 25.82582 | -77.54439 | 19022 ft | 440 kts | 128° |
| 2026-05-05 02:23 | 25.80834 | -77.51657 | 19015 ft | 440 kts | 128° |
| 2026-05-05 02:24 | 25.79094 | -77.48890 | 19020 ft | 440 kts | 128° |
| 2026-05-05 02:24 | 25.77346 | -77.46107 | 19025 ft | 440 kts | 128° |
| 2026-05-05 02:24 | 25.75587 | -77.43317 | 19018 ft | 440 kts | 128° |
| 2026-05-05 02:24 | 25.73847 | -77.40552 | 19023 ft | 440 kts | 128° |
| 2026-05-05 02:25 | 25.72077 | -77.37737 | 19009 ft | 440 kts | 128° |
| 2026-05-05 02:25 | 25.70323 | -77.34966 | 18609 ft | 448 kts | 128° |
| 2026-05-05 02:25 | 25.68562 | -77.32166 | 18148 ft | 435 kts | 128° |
| 2026-05-05 02:25 | 25.66845 | -77.29448 | 17673 ft | 424 kts | 128° |
| 2026-05-05 02:26 | 25.65166 | -77.26792 | 17210 ft | 415 kts | 128° |
| 2026-05-05 02:26 | 25.63528 | -77.24194 | 16591 ft | 412 kts | 128° |
| 2026-05-05 02:26 | 25.61897 | -77.21618 | 15774 ft | 414 kts | 128° |
| 2026-05-05 02:26 | 25.60249 | -77.19015 | 14950 ft | 413 kts | 128° |
| 2026-05-05 02:27 | 25.58616 | -77.16425 | 14120 ft | 412 kts | 128° |
| 2026-05-05 02:27 | 25.56971 | -77.13831 | 13280 ft | 409 kts | 128° |
| 2026-05-05 02:27 | 25.55346 | -77.11266 | 12442 ft | 407 kts | 128° |
| 2026-05-05 02:27 | 25.53727 | -77.08713 | 11591 ft | 403 kts | 128° |
| 2026-05-05 02:28 | 25.52125 | -77.06189 | 10747 ft | 400 kts | 127° |
| 2026-05-05 02:28 | 25.50535 | -77.03683 | 9896 ft | 397 kts | 127° |
| 2026-05-05 02:28 | 25.48968 | -77.01215 | 9054 ft | 393 kts | 127° |
| 2026-05-05 02:28 | 25.47415 | -76.98772 | 8213 ft | 390 kts | 127° |
| 2026-05-05 02:29 | 25.45860 | -76.96324 | 7368 ft | 379 kts | 127° |
| 2026-05-05 02:29 | 25.44386 | -76.94006 | 6501 ft | 362 kts | 126° |
| 2026-05-05 02:29 | 25.42980 | -76.91798 | 5652 ft | 350 kts | 126° |
| 2026-05-05 02:29 | 25.41628 | -76.89588 | 4777 ft | 339 kts | 119° |
| 2026-05-05 02:30 | 25.41042 | -76.87139 | 3898 ft | 330 kts | 90° |
| 2026-05-05 02:30 | 25.41518 | -76.84747 | 3217 ft | 312 kts | 64° |
| 2026-05-05 02:30 | 25.42326 | -76.82625 | 2855 ft | 291 kts | 69° |
| 2026-05-05 02:30 | 25.43021 | -76.80709 | 2470 ft | 277 kts | 68° |
| 2026-05-05 02:31 | 25.43720 | -76.78787 | 2074 ft | 264 kts | 69° |
| 2026-05-05 02:31 | 25.44393 | -76.76926 | 1503 ft | 250 kts | 69° |
| 2026-05-05 02:31 | 25.45006 | -76.75221 | 1176 ft | 224 kts | 69° |
| 2026-05-05 02:31 | 25.45541 | -76.73728 | 1030 ft | 198 kts | 70° |
| 2026-05-05 02:32 | 25.46018 | -76.72417 | 903 ft | 167 kts | 70° |
| 2026-05-05 02:32 | 25.46420 | -76.71304 | 776 ft | 145 kts | 71° |
| 2026-05-05 02:32 | 25.46780 | -76.70301 | 503 ft | 137 kts | 69° |
| 2026-05-05 02:32 | 25.47145 | -76.69325 | 165 ft | 135 kts | 70° |
| 2026-05-05 02:33 | 25.47465 | -76.68417 | 30 ft | 115 kts | 69° |
| 2026-05-05 02:33 | 25.47710 | -76.67728 | 29 ft | 61 kts | 75° |
| 2026-05-05 02:33 | 25.47771 | -76.67546 | 32 ft | 2 kts | 337° |
| 2026-05-05 02:33 | 25.47747 | -76.67619 | 31 ft | 22 kts | 250° |
| 2026-05-05 02:34 | 25.47656 | -76.67867 | 26 ft | 43 kts | 246° |
| 2026-05-05 02:34 | 25.47586 | -76.68122 | 23 ft | 30 kts | 291° |
| 2026-05-05 02:34 | 25.47600 | -76.68208 | 23 ft | 3 kts | 329° |
| 2026-05-05 02:34 | 25.47611 | -76.68224 | 23 ft | 2 kts | 251° |
| 2026-05-05 02:35 | 25.47578 | -76.68318 | 22 ft | 14 kts | 266° |
| 2026-05-05 02:35 | 25.47602 | -76.68343 | 23 ft | 0 kts | 156° |